createdAt,value
2019-05-11T00:02:17.256Z,9.40
2019-05-11T00:04:46.607Z,9.40
2019-05-11T00:07:15.980Z,9.40
2019-05-11T00:09:57.571Z,9.40
2019-05-11T00:12:16.375Z,9.50
2019-05-11T00:14:45.742Z,9.50
2019-05-11T00:17:15.111Z,9.50
2019-05-11T00:19:44.475Z,9.50
2019-05-11T00:22:13.851Z,9.60
2019-05-11T00:24:43.220Z,9.50
2019-05-11T00:27:12.700Z,9.50
2019-05-11T00:29:42.089Z,9.50
2019-05-11T00:32:11.491Z,9.50
2019-05-11T00:34:40.866Z,9.40
2019-05-11T00:37:10.240Z,9.40
2019-05-11T00:39:39.601Z,9.50
2019-05-11T00:42:08.999Z,9.40
2019-05-11T00:44:38.364Z,9.40
2019-05-11T00:47:07.733Z,9.40
2019-05-11T00:49:37.092Z,9.40
2019-05-11T00:52:06.463Z,9.40
2019-05-11T00:54:35.822Z,9.40
2019-05-11T00:57:05.200Z,9.40
2019-05-11T00:59:34.555Z,9.40
2019-05-11T01:02:03.943Z,9.40
2019-05-11T01:04:33.405Z,9.40
2019-05-11T01:07:02.838Z,9.50
2019-05-11T01:09:32.133Z,9.40
2019-05-11T01:12:01.539Z,9.40
2019-05-11T01:14:30.895Z,9.40
2019-05-11T01:17:00.275Z,9.40
2019-05-11T01:19:29.624Z,9.50
2019-05-11T01:21:58.980Z,9.50
2019-05-11T01:24:28.364Z,9.60
2019-05-11T01:26:57.725Z,9.60
2019-05-11T01:29:27.113Z,9.70
2019-05-11T01:31:56.493Z,9.70
2019-05-11T01:34:25.796Z,9.70
2019-05-11T01:36:55.153Z,9.70
2019-05-11T01:39:25.053Z,9.70
2019-05-11T01:41:54.399Z,9.70
2019-05-11T01:44:23.795Z,9.70
2019-05-11T01:46:53.206Z,9.70
2019-05-11T01:49:22.498Z,9.60
2019-05-11T01:51:51.862Z,9.60
2019-05-11T01:54:21.188Z,9.60
2019-05-11T01:56:50.559Z,9.60
2019-05-11T01:59:19.880Z,9.60
2019-05-11T02:01:49.205Z,9.60
2019-05-11T02:04:18.540Z,9.60
2019-05-11T02:06:47.868Z,9.60
2019-05-11T02:09:17.201Z,9.50
2019-05-11T02:11:46.524Z,9.50
2019-05-11T02:14:15.872Z,9.40
2019-05-11T02:16:45.232Z,9.40
2019-05-11T02:19:14.572Z,9.40
2019-05-11T02:21:43.896Z,9.30
2019-05-11T02:24:13.240Z,9.40
2019-05-11T02:26:42.562Z,9.40
2019-05-11T02:29:11.908Z,9.40
2019-05-11T02:31:41.249Z,9.40
2019-05-11T02:34:10.600Z,9.40
2019-05-11T02:36:39.923Z,9.50
2019-05-11T02:39:09.365Z,9.50
2019-05-11T02:41:38.893Z,9.50
2019-05-11T02:44:08.228Z,9.50
2019-05-11T02:46:37.671Z,9.50
2019-05-11T02:49:06.988Z,9.50
2019-05-11T02:51:36.821Z,9.40
2019-05-11T02:54:06.966Z,9.40
2019-05-11T02:56:36.292Z,9.40
2019-05-11T02:59:05.640Z,9.30
2019-05-11T03:01:35.374Z,9.40
2019-05-11T03:04:04.700Z,9.30
2019-05-11T03:06:34.019Z,9.30
2019-05-11T03:09:03.596Z,9.30
2019-05-11T03:11:32.911Z,9.30
2019-05-11T03:14:02.270Z,9.30
2019-05-11T03:16:31.575Z,9.30
2019-05-11T03:19:00.922Z,9.40
2019-05-11T03:21:30.239Z,9.30
2019-05-11T03:23:59.589Z,9.30
2019-05-11T03:26:28.936Z,9.20
2019-05-11T03:28:58.279Z,9.20
2019-05-11T03:31:27.632Z,9.20
2019-05-11T03:33:56.970Z,9.30
2019-05-11T03:36:26.300Z,9.30
2019-05-11T03:38:55.652Z,9.20
2019-05-11T03:41:25.010Z,9.30
2019-05-11T03:43:54.360Z,9.20
2019-05-11T03:46:23.697Z,9.20
2019-05-11T03:48:53.085Z,9.10
2019-05-11T03:51:22.471Z,9.10
2019-05-11T03:53:51.836Z,9.10
2019-05-11T03:56:21.189Z,9.10
2019-05-11T03:58:50.560Z,9.20
2019-05-11T04:01:19.911Z,9.20
2019-05-11T04:03:49.281Z,9.20
2019-05-11T04:06:18.632Z,9.30
2019-05-11T04:08:48.005Z,9.20
2019-05-11T04:11:17.356Z,9.20
2019-05-11T04:13:46.733Z,9.20
2019-05-11T04:16:16.136Z,9.10
2019-05-11T04:18:45.508Z,9.10
2019-05-11T04:21:14.849Z,9.10
2019-05-11T04:23:44.221Z,9.10
2019-05-11T04:26:13.562Z,9.10
2019-05-11T04:28:42.912Z,9.20
2019-05-11T04:31:12.348Z,9.20
2019-05-11T04:33:41.657Z,9.20
2019-05-11T04:36:11.040Z,9.10
2019-05-11T04:38:40.414Z,9.10
2019-05-11T04:41:09.818Z,9.10
2019-05-11T04:43:39.141Z,9.10
2019-05-11T04:46:08.503Z,9.10
2019-05-11T04:48:37.858Z,9.10
2019-05-11T04:51:07.224Z,9.10
2019-05-11T04:53:36.576Z,9.10
2019-05-11T04:56:05.951Z,9.10
2019-05-11T04:58:35.318Z,9.10
2019-05-11T05:01:04.703Z,9.10
2019-05-11T05:03:40.957Z,9.10
2019-05-11T05:06:22.144Z,9.10
2019-05-11T05:08:36.158Z,9.10
2019-05-11T05:11:05.526Z,9.10
2019-05-11T05:13:34.879Z,9.10
2019-05-11T05:16:04.271Z,9.10
2019-05-11T05:18:33.674Z,9.10
2019-05-11T05:21:03.027Z,9.20
2019-05-11T05:23:32.382Z,9.30
2019-05-11T05:26:01.745Z,9.30
2019-05-11T05:28:31.087Z,9.20
2019-05-11T05:31:00.480Z,9.30
2019-05-11T05:33:29.832Z,9.20
2019-05-11T05:35:59.203Z,9.20
2019-05-11T05:38:28.555Z,9.20
2019-05-11T05:40:57.937Z,9.20
2019-05-11T05:43:28.644Z,9.20
2019-05-11T05:45:58.063Z,9.20
2019-05-11T05:48:27.426Z,9.20
2019-05-11T05:50:56.832Z,9.30
2019-05-11T05:53:26.205Z,9.30
2019-05-11T05:55:55.579Z,9.30
2019-05-11T05:58:24.958Z,9.30
2019-05-11T06:00:54.311Z,9.30
2019-05-11T06:03:23.663Z,9.30
2019-05-11T06:05:53.034Z,9.20
2019-05-11T06:08:22.385Z,9.30
2019-05-11T06:10:51.745Z,9.20
2019-05-11T06:13:21.083Z,9.30
2019-05-11T06:15:50.449Z,9.30
2019-05-11T06:18:19.800Z,9.20
2019-05-11T06:20:49.163Z,9.30
2019-05-11T06:23:18.625Z,9.30
2019-05-11T06:25:47.988Z,9.30
2019-05-11T06:28:17.322Z,9.40
2019-05-11T06:30:46.712Z,9.40
2019-05-11T06:33:16.060Z,9.40
2019-05-11T06:35:45.496Z,9.50
2019-05-11T06:38:14.771Z,9.50
2019-05-11T06:40:44.131Z,9.50
2019-05-11T06:43:13.478Z,9.50
2019-05-11T06:45:43.572Z,9.60
2019-05-11T06:48:12.911Z,9.70
2019-05-11T06:50:42.283Z,9.80
2019-05-11T06:53:11.651Z,9.80
2019-05-11T06:55:41.012Z,9.90
2019-05-11T06:58:10.366Z,9.90
2019-05-11T07:00:39.727Z,9.90
2019-05-11T07:03:09.118Z,9.90
2019-05-11T07:05:38.498Z,9.80
2019-05-11T07:08:07.855Z,9.80
2019-05-11T07:10:37.211Z,9.80
2019-05-11T07:13:06.568Z,9.80
2019-05-11T07:15:35.939Z,9.90
2019-05-11T07:18:05.291Z,9.90
2019-05-11T07:20:49.405Z,10.00
2019-05-11T07:23:05.660Z,10.00
2019-05-11T07:25:35.051Z,10.00
2019-05-11T07:28:04.407Z,10.00
2019-05-11T07:30:33.873Z,10.00
2019-05-11T07:33:03.256Z,10.10
2019-05-11T07:35:32.906Z,10.10
2019-05-11T07:38:02.260Z,10.10
2019-05-11T07:40:31.623Z,10.20
2019-05-11T07:43:00.970Z,10.20
2019-05-11T07:45:30.335Z,10.20
2019-05-11T07:47:59.691Z,10.30
2019-05-11T07:50:29.083Z,10.30
2019-05-11T07:52:59.003Z,10.30
2019-05-11T07:55:28.456Z,10.40
2019-05-11T07:57:58.630Z,10.40
2019-05-11T08:00:28.264Z,10.40
2019-05-11T08:02:58.474Z,10.50
2019-05-11T08:05:28.495Z,10.50
2019-05-11T08:07:59.495Z,10.50
2019-05-11T08:10:29.020Z,10.40
2019-05-11T08:12:58.919Z,10.40
2019-05-11T08:15:28.524Z,10.40
2019-05-11T08:17:58.062Z,10.40
2019-05-11T08:20:28.100Z,10.50
2019-05-11T08:22:58.723Z,10.60
2019-05-11T08:25:28.801Z,10.70
2019-05-11T08:27:58.816Z,10.70
2019-05-11T08:30:28.466Z,10.70
2019-05-11T08:32:58.321Z,10.80
2019-05-11T08:35:31.200Z,10.80
2019-05-11T08:37:58.827Z,10.70
2019-05-11T08:40:28.810Z,10.70
2019-05-11T08:42:58.483Z,10.60
2019-05-11T08:45:28.199Z,10.60
2019-05-11T08:47:58.451Z,10.60
2019-05-11T08:50:28.131Z,10.60
2019-05-11T08:52:58.069Z,10.60
2019-05-11T08:55:28.978Z,10.60
2019-05-11T08:57:58.705Z,10.60
2019-05-11T09:00:28.493Z,10.70
2019-05-11T09:02:58.329Z,10.80
2019-05-11T09:05:28.218Z,10.90
2019-05-11T09:07:57.983Z,10.90
2019-05-11T09:10:28.093Z,10.90
2019-05-11T09:12:59.024Z,10.90
2019-05-11T09:15:36.526Z,10.90
2019-05-11T09:17:59.531Z,10.90
2019-05-11T09:20:28.885Z,11.00
2019-05-11T09:22:58.920Z,11.00
2019-05-11T09:25:28.443Z,10.90
2019-05-11T09:27:58.702Z,10.80
2019-05-11T09:30:28.830Z,10.80
2019-05-11T09:32:58.325Z,10.80
2019-05-11T09:35:29.254Z,10.80
2019-05-11T09:37:58.904Z,10.90
2019-05-11T09:40:28.554Z,11.00
2019-05-11T09:42:58.560Z,11.00
2019-05-11T09:45:28.003Z,10.90
2019-05-11T09:47:58.203Z,10.80
2019-05-11T09:50:28.484Z,10.70
2019-05-11T09:52:58.170Z,10.80
2019-05-11T09:55:28.263Z,10.80
2019-05-11T09:57:58.116Z,10.80
2019-05-11T10:00:29.079Z,10.80
2019-05-11T10:02:58.449Z,10.90
2019-05-11T10:05:28.597Z,10.90
2019-05-11T10:07:58.863Z,11.00
2019-05-11T10:10:29.062Z,11.00
2019-05-11T10:12:59.148Z,11.00
2019-05-11T10:15:28.580Z,11.00
2019-05-11T10:17:58.883Z,11.10
2019-05-11T10:20:28.800Z,11.20
2019-05-11T10:22:58.271Z,11.20
2019-05-11T10:25:28.673Z,11.20
2019-05-11T10:27:58.266Z,11.20
2019-05-11T10:30:28.184Z,11.30
2019-05-11T10:32:57.895Z,11.40
2019-05-11T10:35:28.851Z,11.70
2019-05-11T10:37:58.494Z,12.00
2019-05-11T10:40:28.321Z,12.40
2019-05-11T10:42:58.928Z,12.70
2019-05-11T10:45:28.645Z,12.90
2019-05-11T10:48:00.937Z,13.10
2019-05-11T10:50:29.062Z,13.20
2019-05-11T10:52:59.060Z,13.50
2019-05-11T10:55:28.578Z,13.60
2019-05-11T10:57:58.183Z,13.60
2019-05-11T11:00:28.427Z,13.80
2019-05-11T11:02:58.381Z,14.00
2019-05-11T11:05:28.058Z,14.00
2019-05-11T11:07:58.811Z,14.10
2019-05-11T11:10:28.772Z,14.30
2019-05-11T11:12:58.179Z,14.60
2019-05-11T11:15:28.824Z,15.10
2019-05-11T11:17:58.305Z,16.00
2019-05-11T11:20:28.157Z,16.70
2019-05-11T11:22:58.391Z,16.80
2019-05-11T11:25:28.397Z,16.60
2019-05-11T11:27:58.032Z,16.40
2019-05-11T11:30:28.653Z,16.20
2019-05-11T11:32:58.725Z,16.10
2019-05-11T11:35:28.240Z,15.70
2019-05-11T11:37:58.434Z,15.30
2019-05-11T11:40:28.314Z,15.00
2019-05-11T11:42:58.220Z,14.80
2019-05-11T11:45:28.794Z,14.80
2019-05-11T11:47:58.414Z,14.90
2019-05-11T11:50:28.307Z,15.10
2019-05-11T11:52:58.045Z,15.30
2019-05-11T11:55:28.939Z,15.40
2019-05-11T11:57:58.859Z,15.40
2019-05-11T12:00:29.022Z,15.30
2019-05-11T12:02:58.468Z,15.10
2019-05-11T12:05:28.422Z,15.00
2019-05-11T12:07:58.122Z,14.90
2019-05-11T12:10:28.675Z,14.80
2019-05-11T12:12:58.299Z,14.60
2019-05-11T12:15:28.202Z,14.30
2019-05-11T12:17:58.767Z,14.00
2019-05-11T12:20:28.788Z,13.90
2019-05-11T12:22:58.322Z,13.90
2019-05-11T12:25:27.961Z,14.10
2019-05-11T12:27:57.833Z,14.60
2019-05-11T12:30:28.535Z,15.40
2019-05-11T12:32:58.059Z,16.00
2019-05-11T12:35:28.438Z,16.50
2019-05-11T12:37:58.713Z,16.60
2019-05-11T12:40:28.484Z,16.30
2019-05-11T12:42:59.095Z,16.00
2019-05-11T12:45:29.588Z,15.70
2019-05-11T12:47:59.115Z,15.40
2019-05-11T12:50:28.770Z,15.00
2019-05-11T12:52:58.780Z,14.70
2019-05-11T12:55:28.791Z,14.50
2019-05-11T12:57:58.182Z,14.20
2019-05-11T13:00:30.977Z,14.00
2019-05-11T13:02:58.808Z,13.80
2019-05-11T13:05:28.646Z,13.70
2019-05-11T13:07:58.618Z,13.60
2019-05-11T13:10:28.377Z,13.60
2019-05-11T13:12:58.193Z,13.60
2019-05-11T13:15:28.205Z,13.70
2019-05-11T13:17:58.235Z,13.90
2019-05-11T13:20:28.542Z,14.20
2019-05-11T13:22:58.678Z,14.60
2019-05-11T13:25:28.436Z,15.00
2019-05-11T13:27:58.268Z,15.20
2019-05-11T13:30:27.986Z,15.20
2019-05-11T13:32:57.973Z,14.70
2019-05-11T13:35:28.480Z,14.50
2019-05-11T13:37:58.564Z,14.40
2019-05-11T13:40:28.122Z,14.30
2019-05-11T13:42:58.166Z,14.40
2019-05-11T13:45:28.280Z,14.60
2019-05-11T13:47:59.317Z,15.00
2019-05-11T13:50:29.678Z,15.50
2019-05-11T13:52:59.121Z,15.80
2019-05-11T13:55:28.608Z,16.00
2019-05-11T13:57:58.040Z,16.00
2019-05-11T14:00:28.795Z,16.10
2019-05-11T14:03:00.198Z,16.10
2019-05-11T14:05:29.726Z,16.00
2019-05-11T14:07:59.060Z,16.40
2019-05-11T14:10:28.442Z,16.40
2019-05-11T14:12:58.243Z,16.30
2019-05-11T14:15:28.175Z,16.40
2019-05-11T14:18:05.790Z,16.40
2019-05-11T14:20:29.094Z,16.10
2019-05-11T14:22:58.540Z,15.80
2019-05-11T14:25:28.088Z,16.10
2019-05-11T14:27:59.611Z,16.20
2019-05-11T14:30:28.515Z,15.90
2019-05-11T14:32:58.181Z,15.80
2019-05-11T14:35:28.138Z,15.70
2019-05-11T14:37:58.779Z,15.50
2019-05-11T14:40:28.281Z,15.30
2019-05-11T14:42:58.174Z,15.00
2019-05-11T14:45:28.829Z,14.50
2019-05-11T14:47:58.444Z,14.00
2019-05-11T14:50:28.273Z,13.60
2019-05-11T14:52:58.222Z,13.30
2019-05-11T14:55:28.907Z,13.10
2019-05-11T14:57:58.467Z,12.90
2019-05-11T15:00:28.969Z,12.70
2019-05-11T15:02:58.640Z,12.60
2019-05-11T15:05:28.443Z,12.50
2019-05-11T15:07:58.289Z,12.30
2019-05-11T15:10:27.968Z,12.20
2019-05-11T15:12:59.079Z,12.20
2019-05-11T15:15:28.423Z,12.10
2019-05-11T15:17:58.305Z,12.10
2019-05-11T15:20:28.528Z,12.10
2019-05-11T15:22:58.314Z,12.10
2019-05-11T15:25:28.848Z,12.10
2019-05-11T15:27:58.513Z,12.10
2019-05-11T15:30:28.782Z,12.10
2019-05-11T15:32:58.557Z,12.10
2019-05-11T15:35:28.618Z,12.20
2019-05-11T15:37:58.307Z,12.10
2019-05-11T15:40:28.065Z,12.10
2019-05-11T15:42:58.620Z,12.00
2019-05-11T15:45:28.148Z,11.90
2019-05-11T15:47:58.957Z,11.90
2019-05-11T15:50:29.065Z,11.80
2019-05-11T15:52:58.853Z,11.80
2019-05-11T15:55:28.203Z,11.70
2019-05-11T15:57:57.571Z,11.70
2019-05-11T16:00:27.019Z,11.70
2019-05-11T16:02:57.788Z,11.70
2019-05-11T16:05:28.557Z,11.70
2019-05-11T16:08:01.365Z,11.70
2019-05-11T16:10:28.997Z,11.60
2019-05-11T16:12:58.718Z,11.60
2019-05-11T16:15:28.130Z,11.50
2019-05-11T16:17:57.841Z,11.40
2019-05-11T16:20:28.534Z,11.40
2019-05-11T16:22:58.041Z,11.30
2019-05-11T16:25:28.011Z,11.30
2019-05-11T16:27:57.551Z,11.20
2019-05-11T16:30:28.849Z,11.20
2019-05-11T16:32:58.150Z,11.10
2019-05-11T16:35:28.074Z,11.00
2019-05-11T16:37:59.247Z,11.00
2019-05-11T16:40:29.501Z,11.00
2019-05-11T16:42:59.199Z,10.90
2019-05-11T16:45:28.565Z,10.90
2019-05-11T16:47:58.819Z,10.80
2019-05-11T16:50:28.391Z,10.80
2019-05-11T16:52:58.504Z,10.80
2019-05-11T16:55:27.998Z,10.70
2019-05-11T16:57:58.821Z,10.70
2019-05-11T17:00:28.314Z,10.70
2019-05-11T17:02:57.819Z,10.70
2019-05-11T17:05:33.184Z,10.70
2019-05-11T17:07:58.711Z,10.70
2019-05-11T17:10:28.508Z,10.70
2019-05-11T17:12:58.178Z,10.70
2019-05-11T17:15:28.930Z,10.60
2019-05-11T17:17:58.694Z,10.60
2019-05-11T17:20:28.307Z,10.50
2019-05-11T17:22:57.675Z,10.50
2019-05-11T17:25:28.775Z,10.50
2019-05-11T17:27:58.783Z,10.50
2019-05-11T17:30:28.352Z,10.50
2019-05-11T17:32:59.307Z,10.40
2019-05-11T17:35:28.886Z,10.40
2019-05-11T17:37:58.251Z,10.30
2019-05-11T17:40:28.539Z,10.40
2019-05-11T17:42:58.562Z,10.30
2019-05-11T17:45:27.926Z,10.20
2019-05-11T17:47:58.288Z,10.20
2019-05-11T17:50:28.239Z,10.20
2019-05-11T17:52:57.723Z,10.10
2019-05-11T17:55:28.662Z,10.00
2019-05-11T17:57:58.368Z,10.00
2019-05-11T18:00:28.369Z,10.00
2019-05-11T18:02:58.427Z,9.90
2019-05-11T18:05:27.835Z,9.80
2019-05-11T18:07:58.036Z,9.80
2019-05-11T18:10:28.344Z,9.70
2019-05-11T18:12:57.926Z,9.70
2019-05-11T18:15:27.259Z,9.70
2019-05-11T18:17:58.736Z,9.60
2019-05-11T18:20:28.703Z,9.60
2019-05-11T18:22:58.215Z,9.60
2019-05-11T18:25:28.684Z,9.60
2019-05-11T18:27:58.306Z,9.60
2019-05-11T18:30:29.352Z,9.60
2019-05-11T18:32:59.498Z,9.50
2019-05-11T18:35:28.967Z,9.50
2019-05-11T18:37:58.321Z,9.40
2019-05-11T18:40:28.671Z,9.40
2019-05-11T18:42:58.247Z,9.40
2019-05-11T18:45:28.776Z,9.40
2019-05-11T18:47:58.269Z,9.40
2019-05-11T18:50:30.901Z,9.40
2019-05-11T18:52:58.623Z,9.30
2019-05-11T18:55:28.165Z,9.30
2019-05-11T18:57:58.116Z,9.20
2019-05-11T19:00:27.717Z,9.30
2019-05-11T19:02:58.045Z,9.30
2019-05-11T19:05:29.212Z,9.20
2019-05-11T19:07:58.684Z,9.20
2019-05-11T19:10:28.035Z,9.30
2019-05-11T19:12:58.955Z,9.20
2019-05-11T19:15:28.554Z,9.30
2019-05-11T19:17:58.264Z,9.20
2019-05-11T19:20:28.330Z,9.20
2019-05-11T19:22:59.026Z,9.20
2019-05-11T19:25:28.552Z,9.20
2019-05-11T19:27:58.897Z,9.20
2019-05-11T19:30:28.418Z,9.20
2019-05-11T19:32:59.014Z,9.20
2019-05-11T19:35:28.813Z,9.10
2019-05-11T19:37:58.620Z,9.00
2019-05-11T19:40:27.978Z,9.10
2019-05-11T19:42:59.031Z,9.00
2019-05-11T19:45:29.560Z,9.00
2019-05-11T19:47:59.195Z,8.90
2019-05-11T19:50:28.558Z,8.90
2019-05-11T19:52:58.110Z,8.90
2019-05-11T19:55:28.557Z,8.90
2019-05-11T19:57:58.112Z,8.80
2019-05-11T20:00:27.464Z,8.80
2019-05-11T20:02:58.563Z,8.80
2019-05-11T20:05:28.892Z,8.80
2019-05-11T20:07:58.942Z,8.70
2019-05-11T20:10:28.415Z,8.70
2019-05-11T20:12:58.794Z,8.70
2019-05-11T20:15:28.340Z,8.60
2019-05-11T20:17:58.663Z,8.60
2019-05-11T20:20:28.523Z,8.60
2019-05-11T20:22:58.435Z,8.60
2019-05-11T20:25:28.883Z,8.50
2019-05-11T20:27:58.691Z,8.50
2019-05-11T20:30:28.128Z,8.40
2019-05-11T20:32:57.489Z,8.30
2019-05-11T20:35:28.015Z,8.30
2019-05-11T20:37:58.097Z,8.20
2019-05-11T20:40:28.504Z,8.10
2019-05-11T20:42:58.682Z,8.10
2019-05-11T20:45:28.699Z,8.00
2019-05-11T20:47:58.122Z,8.00
2019-05-11T20:50:27.478Z,7.90
2019-05-11T20:52:58.214Z,7.90
2019-05-11T20:55:28.367Z,7.90
2019-05-11T20:57:58.491Z,7.90
2019-05-11T21:00:28.246Z,7.90
2019-05-11T21:02:58.866Z,7.90
2019-05-11T21:05:28.384Z,7.90
2019-05-11T21:07:57.945Z,7.80
2019-05-11T21:10:28.165Z,7.90
2019-05-11T21:12:57.882Z,7.90
2019-05-11T21:15:28.220Z,7.90
2019-05-11T21:17:58.569Z,7.80
2019-05-11T21:20:28.757Z,7.80
2019-05-11T21:22:58.486Z,7.80
2019-05-11T21:25:28.759Z,7.80
2019-05-11T21:27:58.382Z,7.80
2019-05-11T21:30:27.749Z,7.80
2019-05-11T21:32:58.298Z,7.70
2019-05-11T21:35:28.212Z,7.80
2019-05-11T21:37:58.132Z,7.80
2019-05-11T21:40:28.903Z,7.70
2019-05-11T21:42:58.512Z,7.70
2019-05-11T21:45:28.357Z,7.80
2019-05-11T21:47:58.093Z,7.70
2019-05-11T21:50:28.046Z,7.70
2019-05-11T21:52:58.979Z,7.70
2019-05-11T21:55:29.277Z,7.70
2019-05-11T21:57:58.848Z,7.70
2019-05-11T22:00:29.639Z,7.60
2019-05-11T22:02:59.125Z,7.60
2019-05-11T22:05:29.111Z,7.60
2019-05-11T22:07:58.550Z,7.60
2019-05-11T22:10:28.375Z,7.50
2019-05-11T22:12:57.878Z,7.50
2019-05-11T22:15:28.363Z,7.50
2019-05-11T22:17:58.504Z,7.50
2019-05-11T22:20:28.757Z,7.50
2019-05-11T22:22:58.643Z,7.50
2019-05-11T22:25:28.763Z,7.60
2019-05-11T22:27:58.247Z,7.50
2019-05-11T22:30:27.919Z,7.50
2019-05-11T22:32:58.319Z,7.50
2019-05-11T22:35:28.607Z,7.50
2019-05-11T22:37:58.225Z,7.50
2019-05-11T22:40:28.107Z,7.50
2019-05-11T22:42:58.412Z,7.50
2019-05-11T22:45:28.615Z,7.50
2019-05-11T22:47:58.534Z,7.50
2019-05-11T22:50:29.096Z,7.40
2019-05-11T22:52:58.709Z,7.50
2019-05-11T22:55:28.040Z,7.40
2019-05-11T22:57:57.883Z,7.50
2019-05-11T23:00:41.368Z,7.50
2019-05-11T23:03:11.166Z,7.50
2019-05-11T23:05:40.944Z,7.50
2019-05-11T23:08:10.398Z,7.50
2019-05-11T23:10:39.663Z,7.50
2019-05-11T23:13:11.444Z,7.40
2019-05-11T23:15:40.584Z,7.40
2019-05-11T23:18:10.046Z,7.40
2019-05-11T23:20:39.396Z,7.40
2019-05-11T23:23:09.113Z,7.40
2019-05-11T23:25:38.485Z,7.40
2019-05-11T23:28:07.895Z,7.40
2019-05-11T23:30:38.852Z,7.40
2019-05-11T23:33:08.272Z,7.40
2019-05-11T23:35:38.241Z,7.40
2019-05-11T23:38:07.899Z,7.50
2019-05-11T23:40:37.863Z,7.50
2019-05-11T23:43:08.752Z,7.50
2019-05-11T23:45:38.429Z,7.50
2019-05-11T23:48:07.938Z,7.50
2019-05-11T23:50:38.587Z,7.50
2019-05-11T23:53:10.138Z,7.50
2019-05-11T23:55:39.340Z,7.50
2019-05-11T23:58:08.723Z,7.50
